createdAt,value
2022-08-22T00:05:32.424Z,21.80
2022-08-22T00:15:43.637Z,21.57
2022-08-22T00:25:50.488Z,21.62
2022-08-22T00:35:56.631Z,21.62
2022-08-22T00:46:02.479Z,21.24
2022-08-22T00:56:10.388Z,21.27
2022-08-22T01:06:16.304Z,21.27
2022-08-22T01:16:24.772Z,21.33
2022-08-22T01:26:31.930Z,21.16
2022-08-22T01:36:38.830Z,21.16
2022-08-22T01:46:45.863Z,20.98
2022-08-22T01:56:53.019Z,20.98
2022-08-22T02:07:00.343Z,20.91
2022-08-22T02:17:08.171Z,20.75
2022-08-22T02:27:13.875Z,20.80
2022-08-22T02:37:19.951Z,20.98
2022-08-22T02:47:26.023Z,20.98
2022-08-22T02:57:34.544Z,21.08
2022-08-22T03:07:44.098Z,21.19
2022-08-22T03:17:50.418Z,21.19
2022-08-22T03:27:56.184Z,21.19
2022-08-22T03:38:03.700Z,21.10
2022-08-22T03:48:09.778Z,20.77
2022-08-22T03:58:27.709Z,20.77
2022-08-22T04:08:27.528Z,20.28
2022-08-22T04:18:34.312Z,20.32
2022-08-22T04:28:40.574Z,20.60
2022-08-22T04:38:47.068Z,20.78
2022-08-22T04:48:53.220Z,20.88
2022-08-22T04:59:00.133Z,20.88
2022-08-22T05:09:11.778Z,20.98
2022-08-22T05:19:29.628Z,21.38
2022-08-22T05:29:33.342Z,21.38
2022-08-22T05:39:39.635Z,21.67
2022-08-22T05:49:45.918Z,21.67
2022-08-22T05:59:53.005Z,21.76
2022-08-22T06:09:58.703Z,21.84
2022-08-22T06:20:05.212Z,21.84
2022-08-22T06:30:10.940Z,22.02
2022-08-22T06:40:19.101Z,22.02
2022-08-22T06:50:25.053Z,22.04
2022-08-22T07:00:32.673Z,22.34
2022-08-22T07:10:38.700Z,22.34
2022-08-22T07:20:44.972Z,22.67
2022-08-22T07:30:51.325Z,22.77
2022-08-22T07:40:57.535Z,22.88
2022-08-22T07:51:03.887Z,22.91
2022-08-22T08:01:09.821Z,23.02
2022-08-22T08:11:15.511Z,23.09
2022-08-22T08:21:21.352Z,23.14
2022-08-22T08:31:27.061Z,23.23
2022-08-22T08:41:32.939Z,23.27
2022-08-22T08:51:38.852Z,23.31
2022-08-22T09:01:45.901Z,23.49
2022-08-22T09:11:52.079Z,23.65
2022-08-22T09:21:57.891Z,23.65
2022-08-22T09:32:03.789Z,23.86
2022-08-22T09:42:09.695Z,24.05
2022-08-22T09:52:32.050Z,24.31
2022-08-22T10:02:26.023Z,24.31
2022-08-22T10:12:36.058Z,24.96
2022-08-22T10:22:44.608Z,25.00
2022-08-22T10:32:50.944Z,25.12
2022-08-22T10:42:59.171Z,26.42
2022-08-22T10:53:05.805Z,26.99
2022-08-22T11:03:14.517Z,26.23
2022-08-22T11:13:21.267Z,26.03
2022-08-22T11:23:28.168Z,27.05
2022-08-22T11:33:46.203Z,26.09
2022-08-22T11:43:43.597Z,26.69
2022-08-22T11:53:50.384Z,27.93
2022-08-22T12:03:58.542Z,27.97
2022-08-22T12:14:06.427Z,27.80
2022-08-22T12:24:19.146Z,27.88
2022-08-22T12:34:23.606Z,28.19
2022-08-22T12:44:30.427Z,27.84
2022-08-22T12:54:37.046Z,27.97
2022-08-22T13:04:42.878Z,27.92
2022-08-22T13:14:48.483Z,27.56
2022-08-22T13:24:55.321Z,27.05
2022-08-22T13:35:00.910Z,26.76
2022-08-22T13:45:07.338Z,26.70
2022-08-22T13:55:13.683Z,26.46
2022-08-22T14:05:20.060Z,26.46
2022-08-22T14:15:32.320Z,26.59
2022-08-22T14:25:38.862Z,26.59
2022-08-22T14:35:45.574Z,26.72
2022-08-22T14:45:57.244Z,26.67
2022-08-22T14:56:08.432Z,26.38
2022-08-22T15:06:16.679Z,26.30
2022-08-22T15:16:27.467Z,26.23
2022-08-22T15:26:33.118Z,26.07
2022-08-22T15:36:39.057Z,26.00
2022-08-22T15:46:44.767Z,25.86
2022-08-22T15:56:52.353Z,25.76
2022-08-22T16:06:58.182Z,25.71
2022-08-22T16:17:03.805Z,25.72
2022-08-22T16:27:09.138Z,25.70
2022-08-22T16:37:15.146Z,25.59
2022-08-22T16:47:21.072Z,25.50
2022-08-22T16:57:26.801Z,25.41
2022-08-22T17:07:32.251Z,25.34
2022-08-22T17:17:38.102Z,25.25
2022-08-22T17:27:43.915Z,25.20
2022-08-22T17:37:49.822Z,25.17
2022-08-22T17:47:55.687Z,25.16
2022-08-22T17:58:01.698Z,25.13
2022-08-22T18:09:38.921Z,25.17
2022-08-22T18:19:43.615Z,25.06
2022-08-22T18:29:49.637Z,24.95
2022-08-22T18:39:55.512Z,24.75
2022-08-22T18:50:01.450Z,24.63
2022-08-22T19:00:07.055Z,24.51
2022-08-22T19:10:12.451Z,24.38
2022-08-22T19:20:17.716Z,24.27
2022-08-22T19:30:23.309Z,24.16
2022-08-22T19:40:28.841Z,23.31
2022-08-22T19:50:34.228Z,23.55
2022-08-22T20:00:39.630Z,23.59
2022-08-22T20:10:45.019Z,23.61
2022-08-22T20:20:50.420Z,23.52
2022-08-22T20:30:55.929Z,23.33
2022-08-22T20:41:01.491Z,23.28
2022-08-22T20:51:07.645Z,23.18
2022-08-22T21:01:12.914Z,23.00
2022-08-22T21:11:20.809Z,23.02
2022-08-22T21:21:26.097Z,22.95
2022-08-22T21:31:33.529Z,22.84
2022-08-22T21:41:38.828Z,22.76
2022-08-22T21:51:45.627Z,22.68
2022-08-22T22:01:51.232Z,22.59
2022-08-22T22:11:59.227Z,22.57
2022-08-22T22:22:05.167Z,22.49
2022-08-22T22:32:12.012Z,22.37
2022-08-22T22:42:17.575Z,22.34
2022-08-22T22:52:25.183Z,22.09
2022-08-22T23:02:31.285Z,22.09
2022-08-22T23:12:38.924Z,21.96
2022-08-22T23:22:44.757Z,21.55
2022-08-22T23:32:51.820Z,21.55
2022-08-22T23:42:57.349Z,21.21
2022-08-22T23:53:05.007Z,21.47
